Brentwood, North Carolina
Current Conditions -  °F | °C
As of 8:51 AM on Thursday 27 Nov 2014 (Local Time) from KRDU Reporting Station
Haze Haze  
Wind Chill: 39°   Ceiling: 500
Heat Index: 43°   Visibility: 4mi
Dew Point: 40°   Wind: 6mph
Humidity: 89%   Direction: 160°SSE
Pressure: 30.02"   Gusts: NA
Location:  35.8604°N, 78.5416°W
Report Text: KRDU 271351Z 16005KT 4SM BR BKN005 OVC050 06/04 A3002 RMK AO2 RAE50 SLP166 CIG 004V006 P0000 T00610044 $
Loading
Personal Weather Stations






























Interactive Weather Map New forecast layout! Learn more

10-Day Weather Forecast

Advertisements
Track Severe Weather on mobile